Latest Weather Observations for Robe Airport

IDS60801

Issued at 3:35 pm CDT Wednesday 26 November 2014 (issued every 30 minutes, with the page automatically refreshed every 10 minutes)

About weather observations | Map of weather stations | Latest weather observations for SA | Other Formats
Station Details ID: 026105 Name: ROBE AIRFIELD Lat: -37.18 Lon: 139.81 Height: 3.0 m
Data from the previous 72 hours. | See also: Recent months at Robe Airport
Date/Time
CDT
Temp
°C
App
Temp
°C
Dew
Point
Rel
Hum
%
Delta-T
°C
Wind Press
QNH
hPa
Press
MSL
hPa
Rain
since 9 am
mm
Dir
 
Spd
km/h
Gust
km/h
Spd
kts
Gust
kts
26/03:30pm 18.2 14.8 12.6 70 3.1 SSW 22 30 12 16 1023.8 1023.8 0.0
26/03:00pm 18.4 15.5 12.2 67 3.4 SSW 19 26 10 14 1024.0 1024.0 0.0
26/02:30pm 18.1 15.4 13.0 72 2.8 SW 19 28 10 15 1024.2 1024.2 0.0
26/02:00pm 18.0 15.2 12.5 70 3.1 SW 19 26 10 14 1024.3 1024.3 0.0
26/01:30pm 18.2 15.5 11.7 66 3.5 SW 17 26 9 14 1024.3 1024.3 0.0
26/01:00pm 18.7 16.0 11.8 64 3.8 SSW 17 28 9 15 1024.2 1024.2 0.0
26/12:30pm 19.0 15.8 12.0 64 3.9 SSW 20 28 11 15 1024.3 1024.3 0.0
26/12:00pm 18.0 15.9 11.1 64 3.7 WSW 13 26 7 14 1024.5 1024.5 0.0
26/11:30am 17.3 14.8 10.9 66 3.4 SSW 15 30 8 16 1024.4 1024.4 0.0
26/11:00am 16.8 14.9 10.6 67 3.3 SW 11 22 6 12 1024.5 1024.5 0.0
26/10:30am 15.3 13.7 11.5 78 2.0 SW 11 22 6 12 1024.5 1024.5 0.0
26/10:00am 16.2 14.1 9.6 65 3.4 SW 11 19 6 10 1024.3 1024.3 0.0
26/09:30am 17.2 15.5 11.2 68 3.2 SW 11 22 6 12 1024.1 1024.1 0.0
26/09:00am 15.9 13.6 9.1 64 3.5 SW 11 19 6 10 1023.9 1023.9 -
26/08:30am 15.4 13.8 10.2 71 2.7 W 9 17 5 9 1023.7 1023.7 -
26/08:00am 15.0 11.4 9.8 71 2.7 SW 19 28 10 15 1023.2 1023.2 -
26/07:30am 14.4 11.7 10.2 76 2.2 SSW 15 22 8 12 1022.8 1022.8 -
26/07:00am 14.6 12.9 8.3 66 3.2 SSW 7 11 4 6 1022.5 1022.5 -
26/06:30am 14.4 11.6 8.4 67 3.0 SW 13 19 7 10 1022.4 1022.4 -
26/06:00am 14.1 12.4 9.9 76 2.2 WSW 9 15 5 8 1022.2 1022.2 -
26/05:30am 14.2 12.4 9.4 73 2.4 SW 9 15 5 8 1021.9 1021.9 -
26/05:00am 14.0 12.7 9.8 76 2.2 SW 7 13 4 7 1021.7 1021.7 -
26/04:30am 13.7 12.0 9.9 78 2.0 SSW 9 11 5 6 1021.7 1021.7 -
26/04:00am 14.1 12.1 8.7 70 2.7 SW 9 17 5 9 1021.6 1021.6 -
26/03:30am 14.2 12.1 8.2 67 3.0 SW 9 17 5 9 1021.5 1021.5 -
26/03:00am 13.9 11.9 8.7 71 2.6 WSW 9 15 5 8 1021.6 1021.6 0.0
26/02:30am 13.8 12.0 9.5 75 2.2 SSW 9 13 5 7 1021.8 1021.8 -
26/02:00am 13.9 11.5 10.1 78 2.0 SSW 13 20 7 11 1021.9 1021.9 -
26/01:30am 14.0 12.1 7.5 65 3.2 SW 7 11 4 6 1022.0 1022.0 -
26/01:00am 13.9 12.0 7.4 65 3.2 SSW 7 11 4 6 1022.4 1022.4 -
26/12:30am 13.6 10.9 7.4 66 3.0 SSW 11 17 6 9 1022.6 1022.6 -
26/12:00am 13.0 11.0 6.4 64 3.1 SW 6 9 3 5 1022.9 1022.9 -
 
Date/Time
CDT
Temp
°C
App
Temp
°C
Dew
Point
Rel
Hum
%
Delta-T
°C
Wind Press
QNH
hPa
Press
MSL
hPa
Rain
since 9 am
mm
Dir
 
Spd
km/h
Gust
km/h
Spd
kts
Gust
kts
25/11:30pm 13.3 11.1 6.4 63 3.3 SW 7 11 4 6 1023.2 1023.2 -
25/11:00pm 13.7 10.8 6.3 61 3.5 SW 11 17 6 9 1023.2 1023.2 -
25/10:30pm 13.3 11.3 6.9 65 3.1 SW 7 13 4 7 1023.3 1023.3 -
25/10:00pm 13.4 10.9 6.5 63 3.3 SW 9 13 5 7 1023.4 1023.4 -
25/09:30pm 13.4 11.4 7.0 65 3.1 SW 7 13 4 7 1023.2 1023.2 -
25/09:00pm 13.6 10.4 6.9 64 3.2 SW 13 19 7 10 1023.1 1023.1 -
25/08:30pm 14.0 11.1 6.6 61 3.6 SW 11 17 6 9 1023.1 1023.1 -
25/08:00pm 14.1 10.9 6.7 61 3.6 SSW 13 19 7 10 1022.8 1022.8 -
25/07:30pm 14.5 10.3 7.5 63 3.4 SSW 19 24 10 13 1022.9 1022.9 -
25/07:00pm 15.0 11.4 8.3 64 3.4 SSW 17 24 9 13 1022.6 1022.6 -
25/06:30pm 15.3 11.7 8.5 64 3.4 SW 17 28 9 15 1022.4 1022.4 -
25/06:00pm 16.2 12.3 7.2 55 4.4 SW 17 24 9 13 1022.2 1022.2 -
25/05:30pm 16.6 12.5 7.8 56 4.4 SW 19 30 10 16 1022.0 1022.0 -
25/05:00pm 17.2 13.1 7.8 54 4.8 SW 19 32 10 17 1021.9 1021.9 -
25/04:30pm 17.4 13.6 9.1 58 4.3 SW 19 30 10 16 1021.8 1021.8 -
25/04:00pm 18.2 13.8 7.6 50 5.4 WSW 20 32 11 17 1021.9 1021.9 -
25/08:30am 15.5 12.3 7.0 57 4.2 WSW 13 22 7 12 1021.0 1021.0 0.0
25/08:00am 15.4 12.3 7.2 58 4.0 SW 13 20 7 11 1020.7 1020.7 0.0
25/07:30am 14.7 10.9 7.7 63 3.5 SW 17 24 9 13 1020.5 1020.5 0.0
25/07:00am 15.2 12.1 7.3 59 3.9 SW 13 20 7 11 1020.0 1020.0 0.0
25/06:30am 14.0 11.1 6.4 60 3.6 WSW 11 19 6 10 1019.7 1019.7 0.0
25/06:00am 14.2 10.9 7.9 66 3.1 SW 15 26 8 14 1019.2 1019.2 0.0
25/05:30am 13.7 10.5 8.3 70 2.7 SW 15 28 8 15 1018.8 1018.8 0.0
25/05:00am 13.6 10.5 8.7 72 2.5 SW 15 26 8 14 1018.4 1018.4 0.0
25/04:30am 14.1 10.1 8.9 71 2.6 SW 20 30 11 16 1018.2 1018.2 0.0
25/04:00am 13.8 10.3 8.8 72 2.5 SW 17 30 9 16 1018.0 1018.0 0.0
25/03:30am 14.3 10.8 8.9 70 2.7 WSW 17 26 9 14 1017.8 1017.8 0.0
25/03:00am 13.9 9.9 8.3 69 2.8 SW 19 28 10 15 1017.8 1017.8 0.0
25/02:30am 14.0 9.9 8.0 67 3.0 SW 19 28 10 15 1017.7 1017.7 0.0
25/02:00am 14.1 10.1 8.3 68 2.9 SW 19 30 10 16 1017.9 1017.9 0.0
25/01:30am 13.8 9.7 8.0 68 2.9 SW 19 32 10 17 1018.0 1018.0 0.0
25/01:00am 14.0 10.2 9.2 73 2.4 SW 19 30 10 16 1017.9 1017.9 0.0
25/12:30am 14.2 11.5 8.8 70 2.7 SW 13 22 7 12 1017.7 1017.7 0.0
25/12:00am 14.1 10.1 8.3 68 2.9 WSW 19 35 10 19 1017.8 1017.8 0.0
 
Date/Time
CDT
Temp
°C
App
Temp
°C
Dew
Point
Rel
Hum
%
Delta-T
°C
Wind Press
QNH
hPa
Press
MSL
hPa
Rain
since 9 am
mm
Dir
 
Spd
km/h
Gust
km/h
Spd
kts
Gust
kts
24/11:30pm 14.4 10.5 8.6 68 2.9 SW 19 30 10 16 1017.6 1017.6 0.0
24/11:00pm 14.1 10.5 8.3 68 2.9 SW 17 28 9 15 1017.5 1017.5 0.0
24/10:30pm 14.4 10.5 8.6 68 2.9 WSW 19 32 10 17 1017.3 1017.3 0.0
24/10:00pm 14.6 11.0 8.3 66 3.2 WSW 17 30 9 16 1017.1 1017.1 0.0
24/09:30pm 14.5 10.7 9.1 70 2.7 WSW 19 28 10 15 1016.8 1016.8 0.0
24/09:00pm 14.0 11.0 9.4 74 2.3 SW 15 24 8 13 1016.5 1016.5 0.0
24/08:30pm 14.7 10.5 8.2 65 3.3 WSW 20 33 11 18 1016.2 1016.2 0.0
24/08:00pm 14.8 10.4 7.6 62 3.6 WSW 20 35 11 19 1015.8 1015.8 0.0
24/07:30pm 15.5 10.7 7.3 58 4.1 WSW 22 41 12 22 1015.4 1015.4 0.0
24/07:00pm 16.0 11.7 7.7 58 4.2 WSW 20 33 11 18 1014.9 1014.9 0.0
24/06:30pm 16.4 11.0 6.5 52 4.8 WSW 24 39 13 21 1014.5 1014.5 0.0
24/06:00pm 16.9 11.8 7.8 55 4.6 WSW 24 39 13 21 1014.1 1014.1 0.0
24/05:30pm 17.4 12.8 8.0 54 4.8 WSW 22 39 12 21 1013.9 1013.9 0.0
24/05:00pm 17.5 12.4 7.8 53 4.9 WSW 24 41 13 22 1013.7 1013.7 0.0
24/04:36pm 17.4 11.7 8.3 55 4.7 WSW 28 48 15 26 1013.4 1013.4 0.0
24/04:30pm 17.7 12.9 8.8 56 4.6 WSW 24 39 13 21 1013.4 1013.4 0.0
24/04:00pm 18.1 12.9 8.9 55 4.8 WSW 26 39 14 21 1013.3 1013.3 0.0
24/03:30pm 18.0 13.4 9.6 58 4.4 WSW 24 44 13 24 1013.1 1013.1 0.0
24/03:00pm 18.5 14.0 8.7 53 5.1 WSW 22 37 12 20 1012.9 1012.9 0.0
24/02:30pm 18.1 13.3 8.9 55 4.8 WSW 24 37 13 20 1012.9 1012.9 0.0
24/02:00pm 18.5 13.7 10.3 59 4.4 SW 26 41 14 22 1012.7 1012.7 0.0
24/01:30pm 18.5 14.2 10.8 61 4.2 WSW 24 39 13 21 1012.6 1012.6 0.0
24/01:00pm 18.6 13.8 10.4 59 4.4 WSW 26 43 14 23 1012.3 1012.3 0.0
24/12:30pm 17.6 12.7 11.2 66 3.5 SW 28 43 15 23 1012.0 1012.0 0.0
24/12:09pm 17.9 13.2 11.9 68 3.3 SW 28 48 15 26 1011.9 1011.9 0.0
24/12:00pm 17.5 13.6 12.0 70 3.0 WSW 24 39 13 21 1011.8 1011.8 0.0
24/11:30am 16.6 13.4 12.0 74 2.5 WSW 20 33 11 18 1011.6 1011.6 0.0
24/11:00am 15.5 13.5 14.0 91 0.8 WSW 17 32 9 17 1011.6 1011.6 0.0
24/10:30am 17.1 14.4 12.8 76 2.4 WSW 19 37 10 20 1011.2 1011.2 0.0
24/10:00am 18.8 16.8 12.8 68 3.4 SW 15 22 8 12 1010.9 1010.9 0.0
24/09:30am 18.5 16.9 12.7 69 3.2 SW 13 20 7 11 1010.7 1010.7 0.0
24/09:00am 18.9 17.0 12.9 68 3.4 SSW 15 20 8 11 1010.3 1010.3 0.0
24/08:30am 17.1 15.1 12.8 76 2.4 SSW 15 19 8 10 1010.2 1010.2 0.0
24/08:00am 16.6 15.8 12.8 78 2.1 S 9 13 5 7 1010.5 1010.5 0.0
24/07:30am 16.3 15.0 12.5 78 2.1 S 11 17 6 9 1009.9 1009.9 0.0
24/07:00am 15.6 14.2 12.2 80 1.9 SSW 11 15 6 8 1009.5 1009.5 0.0
24/06:30am 15.1 14.5 12.2 83 1.6 S 7 11 4 6 1009.8 1009.8 0.0
24/06:00am 14.5 13.6 12.5 88 1.1 SSW 9 9 5 5 1009.6 1009.6 0.0
24/05:30am 14.1 13.6 12.1 88 1.1 SSW 6 7 3 4 1009.4 1009.4 0.0
24/05:00am 13.8 12.8 12.4 91 0.8 S 9 9 5 5 1009.2 1009.2 0.0
24/04:30am 14.3 13.4 12.7 90 0.9 SSE 9 13 5 7 1008.6 1008.6 0.0
24/04:00am 14.8 14.1 13.2 90 0.9 SSW 9 15 5 8 1009.4 1009.4 0.0
24/03:30am 12.9 12.0 11.3 90 0.8 S 7 11 4 6 1009.0 1009.0 0.0
24/03:00am 12.2 11.0 10.3 88 1.0 SSW 7 9 4 5 1009.0 1009.0 0.0
24/02:30am 12.6 11.1 10.7 88 1.0 S 9 13 5 7 1009.1 1009.1 0.0
24/02:00am 12.4 11.3 10.6 89 0.9 S 7 9 4 5 1009.2 1009.2 0.0
24/01:30am 13.0 12.1 10.7 86 1.2 S 6 7 3 4 1009.6 1009.6 0.0
24/01:00am 13.4 12.5 11.3 87 1.1 ESE 7 11 4 6 1008.9 1008.9 0.0
24/12:30am 13.3 12.5 11.7 90 0.9 ESE 7 9 4 5 1010.0 1010.0 0.0
24/12:00am 14.3 13.8 12.2 87 1.1 ESE 6 9 3 5 1011.0 1011.0 0.0
 
Date/Time
CDT
Temp
°C
App
Temp
°C
Dew
Point
Rel
Hum
%
Delta-T
°C
Wind Press
QNH
hPa
Press
MSL
hPa
Rain
since 9 am
mm
Dir
 
Spd
km/h
Gust
km/h
Spd
kts
Gust
kts
23/11:30pm 15.1 14.5 12.4 84 1.5 ESE 7 9 4 5 1011.1 1011.1 0.0
23/11:00pm 15.5 14.8 13.3 87 1.2 S 9 13 5 7 1011.4 1011.4 0.0
23/10:30pm 14.4 14.0 13.0 91 0.8 SSE 7 9 4 5 1011.7 1011.7 0.0
23/10:00pm 14.4 15.3 12.8 90 0.9 CALM 0 0 0 0 1012.2 1012.2 0.0
23/09:30pm 14.6 15.0 12.6 88 1.1 SE 2 6 1 3 1012.0 1012.0 0.0
23/09:00pm 15.5 15.2 13.2 86 1.3 SSE 7 11 4 6 1011.6 1011.6 0.0
23/08:30pm 16.3 14.6 13.6 84 1.5 SSW 15 19 8 10 1011.3 1011.3 0.0
23/08:00pm 16.4 16.2 12.9 80 1.9 S 6 7 3 4 1011.4 1011.4 0.0
23/07:30pm 17.2 17.4 13.1 77 2.3 S 4 6 2 3 1011.6 1011.6 0.0
23/07:00pm 17.4 17.1 12.7 74 2.6 S 6 7 3 4 1011.6 1011.6 0.0
23/06:30pm 17.6 17.4 12.9 74 2.6 SSW 6 7 3 4 1011.6 1011.6 0.0
23/06:00pm 17.9 17.3 13.4 75 2.5 WSW 9 15 5 8 1012.4 1012.4 0.0
23/05:30pm 18.4 16.9 13.1 71 3.0 WSW 13 19 7 10 1011.9 1011.9 0.0
23/05:00pm 19.4 18.4 12.4 64 3.9 WSW 9 13 5 7 1011.2 1011.2 0.0
23/04:30pm 19.6 18.3 11.1 58 4.6 SW 9 13 5 7 1011.3 1011.3 0.0
23/04:00pm 20.5 19.6 12.5 60 4.5 WNW 9 17 5 9 1011.5 1011.5 0.0

Other Formats:

Comma delimited format used in spreadsheet applications
http://www.bom.gov.au/fwo/IDS60801/IDS60801.95816.axf

JavaScript Object Notation format (JSON) in row-major order
http://www.bom.gov.au/fwo/IDS60801/IDS60801.95816.json